createdAt,value
2018-11-21T00:02:23.565Z,25.97
2018-11-21T00:04:51.934Z,25.70
2018-11-21T00:07:20.350Z,25.30
2018-11-21T00:09:48.718Z,26.30
2018-11-21T00:12:17.086Z,26.57
2018-11-21T00:14:45.454Z,25.07
2018-11-21T00:17:13.818Z,24.93
2018-11-21T00:19:42.182Z,25.10
2018-11-21T00:22:10.555Z,24.97
2018-11-21T00:24:38.920Z,24.93
2018-11-21T00:27:07.286Z,25.10
2018-11-21T00:29:35.640Z,25.37
2018-11-21T00:32:04.030Z,24.87
2018-11-21T00:34:32.376Z,28.10
2018-11-21T00:37:00.777Z,28.17
2018-11-21T00:39:29.134Z,29.37
2018-11-21T00:41:57.503Z,31.50
2018-11-21T00:44:25.949Z,29.83
2018-11-21T00:46:54.415Z,31.03
2018-11-21T00:49:22.780Z,29.23
2018-11-21T00:51:51.198Z,30.67
2018-11-21T00:54:19.566Z,29.43
2018-11-21T00:56:48.012Z,29.37
2018-11-21T00:59:16.398Z,27.67
2018-11-21T01:01:44.760Z,27.83
2018-11-21T01:04:13.131Z,27.07
2018-11-21T01:06:41.505Z,27.43
2018-11-21T01:09:09.914Z,27.93
2018-11-21T01:11:38.306Z,29.03
2018-11-21T01:14:06.686Z,26.37
2018-11-21T01:16:35.055Z,27.13
2018-11-21T01:19:03.441Z,25.73
2018-11-21T01:21:31.824Z,24.33
2018-11-21T01:24:00.224Z,25.33
2018-11-21T01:26:28.585Z,25.13
2018-11-21T01:28:56.980Z,24.37
2018-11-21T01:31:25.361Z,24.80
2018-11-21T01:33:53.775Z,24.73
2018-11-21T01:36:22.156Z,24.43
2018-11-21T01:38:50.621Z,25.83
2018-11-21T01:41:18.995Z,29.13
2018-11-21T01:43:47.413Z,26.37
2018-11-21T01:46:15.780Z,27.53
2018-11-21T01:48:44.139Z,27.70
2018-11-21T01:51:12.486Z,28.40
2018-11-21T01:53:40.861Z,27.27
2018-11-21T01:56:09.241Z,27.87
2018-11-21T01:58:37.603Z,26.27
2018-11-21T02:01:05.954Z,26.63
2018-11-21T02:03:34.337Z,26.57
2018-11-21T02:06:02.707Z,24.30
2018-11-21T02:08:31.076Z,26.60
2018-11-21T02:10:59.462Z,24.90
2018-11-21T02:13:27.817Z,24.73
2018-11-21T02:15:56.172Z,26.43
2018-11-21T02:18:24.525Z,24.47
2018-11-21T02:20:52.875Z,25.47
2018-11-21T02:23:21.236Z,27.37
2018-11-21T02:25:49.586Z,26.43
2018-11-21T02:28:17.952Z,26.30
2018-11-21T02:30:46.353Z,23.97
2018-11-21T02:33:14.734Z,24.27
2018-11-21T02:35:43.116Z,25.47
2018-11-21T02:38:11.482Z,24.23
2018-11-21T02:40:39.861Z,25.97
2018-11-21T02:43:08.261Z,24.83
2018-11-21T02:45:36.713Z,24.80
2018-11-21T02:48:05.231Z,24.97
2018-11-21T02:50:33.597Z,24.60
2018-11-21T02:53:01.959Z,25.03
2018-11-21T02:55:30.333Z,24.63
2018-11-21T02:57:58.704Z,24.03
2018-11-21T03:00:28.026Z,26.37
2018-11-21T03:02:56.394Z,24.50
2018-11-21T03:05:24.763Z,24.80
2018-11-21T03:07:54.486Z,24.23
2018-11-21T03:10:23.777Z,25.80
2018-11-21T03:12:52.140Z,24.93
2018-11-21T03:15:20.636Z,25.47
2018-11-21T03:17:48.989Z,25.77
2018-11-21T03:20:17.595Z,25.00
2018-11-21T03:22:46.116Z,25.10
2018-11-21T03:25:14.496Z,25.97
2018-11-21T03:27:42.839Z,25.33
2018-11-21T03:30:12.344Z,27.20
2018-11-21T03:32:41.434Z,26.23
2018-11-21T03:35:09.909Z,25.73
2018-11-21T03:37:57.686Z,25.07
2018-11-21T03:40:45.419Z,25.03
2018-11-21T03:43:33.176Z,24.93
2018-11-21T03:46:20.924Z,26.13
2018-11-21T03:49:08.638Z,25.40
2018-11-21T03:51:56.357Z,25.93
2018-11-21T03:54:44.076Z,25.87
2018-11-21T03:57:31.849Z,24.37
2018-11-21T04:00:19.569Z,25.47
2018-11-21T04:03:07.286Z,25.50
2018-11-21T04:05:55.014Z,25.73
2018-11-21T04:08:42.835Z,24.73
2018-11-21T04:11:30.532Z,23.83
2018-11-21T04:14:18.291Z,25.20
2018-11-21T04:17:06.050Z,25.23
2018-11-21T04:19:53.771Z,26.70
2018-11-21T04:22:41.501Z,25.63
2018-11-21T04:25:29.234Z,26.93
2018-11-21T04:28:16.975Z,27.57
2018-11-21T04:31:04.727Z,25.90
2018-11-21T04:33:52.520Z,25.70
2018-11-21T04:36:40.225Z,26.50
2018-11-21T04:39:27.961Z,27.57
2018-11-21T04:42:15.706Z,27.40
2018-11-21T04:45:03.466Z,25.67
2018-11-21T04:47:51.229Z,25.13
2018-11-21T04:50:39.224Z,24.47
2018-11-21T04:53:28.101Z,24.10
2018-11-21T04:56:15.404Z,25.10
2018-11-21T04:59:03.148Z,24.93
2018-11-21T05:01:50.888Z,25.17
2018-11-21T05:04:38.642Z,26.20
2018-11-21T05:07:26.492Z,23.47
2018-11-21T05:10:14.265Z,24.50
2018-11-21T05:13:02.026Z,37.47
2018-11-21T05:15:49.821Z,35.67
2018-11-21T05:18:37.570Z,34.30
2018-11-21T05:21:25.399Z,34.90
2018-11-21T05:24:13.180Z,40.50
2018-11-21T05:27:00.967Z,57.67
2018-11-21T05:29:48.724Z,42.07
2018-11-21T05:32:36.495Z,36.97
2018-11-21T05:35:24.255Z,42.93
2018-11-21T05:38:12.011Z,36.33
2018-11-21T05:40:59.773Z,35.77
2018-11-21T05:43:47.515Z,35.73
2018-11-21T05:46:35.255Z,39.13
2018-11-21T05:49:23.119Z,38.67
2018-11-21T05:52:10.875Z,36.57
2018-11-21T05:54:58.662Z,35.70
2018-11-21T05:57:46.439Z,34.30
2018-11-21T06:00:34.197Z,35.33
2018-11-21T06:03:21.987Z,38.97
2018-11-21T06:06:10.153Z,39.87
2018-11-21T06:08:57.479Z,38.40
2018-11-21T06:11:45.237Z,40.60
2018-11-21T06:14:32.974Z,41.13
2018-11-21T06:17:20.745Z,39.33
2018-11-21T06:20:09.212Z,40.13
2018-11-21T06:22:56.959Z,39.93
2018-11-21T06:25:44.744Z,37.60
2018-11-21T06:28:32.631Z,38.63
2018-11-21T06:31:20.426Z,37.77
2018-11-21T06:34:08.183Z,35.67
2018-11-21T06:36:55.990Z,32.37
2018-11-21T06:39:43.786Z,32.63
2018-11-21T06:42:31.586Z,31.97
2018-11-21T06:45:19.503Z,32.90
2018-11-21T06:48:07.253Z,32.43
2018-11-21T06:50:55.061Z,31.40
2018-11-21T06:53:42.905Z,30.67
2018-11-21T06:56:30.732Z,29.87
2018-11-21T06:59:18.489Z,32.07
2018-11-21T07:02:06.225Z,30.93
2018-11-21T07:04:53.990Z,30.47
2018-11-21T07:07:41.719Z,29.70
2018-11-21T07:10:29.602Z,30.87
2018-11-21T07:13:17.363Z,28.37
2018-11-21T07:16:05.132Z,28.50
2018-11-21T07:18:52.870Z,27.70
2018-11-21T07:21:40.631Z,27.57
2018-11-21T07:24:28.357Z,26.60
2018-11-21T07:27:16.108Z,23.87
2018-11-21T07:30:03.839Z,23.90
2018-11-21T07:32:51.593Z,22.60
2018-11-21T07:35:39.511Z,22.70
2018-11-21T07:38:27.505Z,24.93
2018-11-21T07:41:15.276Z,23.00
2018-11-21T07:44:03.037Z,22.40
2018-11-21T07:46:50.778Z,22.77
2018-11-21T07:49:38.971Z,21.57
2018-11-21T07:52:26.795Z,23.23
2018-11-21T07:55:14.735Z,19.47
2018-11-21T07:58:21.665Z,18.20
2018-11-21T08:01:28.832Z,20.93
2018-11-21T08:04:20.966Z,20.40
2018-11-21T08:10:31.241Z,20.60
2018-11-21T08:13:38.135Z,19.47
2018-11-21T08:16:45.210Z,19.10
2018-11-21T08:19:52.103Z,17.97
2018-11-21T08:22:59.023Z,18.63
2018-11-21T08:26:05.920Z,17.40
2018-11-21T08:28:53.660Z,16.87
2018-11-21T08:31:41.514Z,17.50
2018-11-21T08:37:16.964Z,17.80
2018-11-21T08:40:04.836Z,18.97
2018-11-21T08:42:52.571Z,16.47
2018-11-21T08:45:40.335Z,22.35
2018-11-21T08:48:28.285Z,19.47
2018-11-21T08:51:16.068Z,18.27
2018-11-21T08:54:03.826Z,19.93
2018-11-21T08:56:51.606Z,23.93
2018-11-21T08:59:39.345Z,22.67
2018-11-21T09:02:27.181Z,20.27
2018-11-21T09:05:14.929Z,18.53
2018-11-21T09:08:02.752Z,19.60
2018-11-21T09:10:50.526Z,18.23
2018-11-21T09:13:38.269Z,18.03
2018-11-21T09:16:25.994Z,16.63
2018-11-21T09:19:13.720Z,17.20
2018-11-21T09:22:01.447Z,15.73
2018-11-21T09:24:49.238Z,14.20
2018-11-21T09:27:37.458Z,11.07
2018-11-21T09:30:25.191Z,10.43
2018-11-21T09:33:12.989Z,10.10
2018-11-21T09:36:00.746Z,10.60
2018-11-21T09:38:48.468Z,10.33
2018-11-21T09:41:36.210Z,9.10
2018-11-21T09:44:24.074Z,7.60
2018-11-21T09:47:11.819Z,9.30
2018-11-21T09:49:59.752Z,10.77
2018-11-21T09:52:50.380Z,10.57
2018-11-21T09:55:35.966Z,8.73
2018-11-21T09:58:22.945Z,7.13
2018-11-21T10:01:30.131Z,34.33
2018-11-21T10:04:17.898Z,8.67
2018-11-21T10:06:58.312Z,6.83
2018-11-21T10:09:44.305Z,7.03
2018-11-21T10:12:25.095Z,7.00
2018-11-21T10:15:05.353Z,7.23
2018-11-21T10:17:46.107Z,7.70
2018-11-21T10:20:26.807Z,27.60
2018-11-21T10:23:07.146Z,23.80
2018-11-21T10:25:47.584Z,15.97
2018-11-21T10:28:28.959Z,13.40
2018-11-21T10:31:09.221Z,10.57
2018-11-21T10:33:50.448Z,8.10
2018-11-21T10:36:31.296Z,6.97
2018-11-21T10:39:11.585Z,7.43
2018-11-21T10:41:52.002Z,14.50
2018-11-21T10:44:32.742Z,12.47
2018-11-21T10:47:13.807Z,9.50
2018-11-21T10:49:54.162Z,7.77
2018-11-21T10:52:35.263Z,6.80
2018-11-21T10:55:16.200Z,6.60
2018-11-21T10:57:56.788Z,6.37
2018-11-21T11:00:56.102Z,5.70
2018-11-21T11:03:39.378Z,6.10
2018-11-21T11:06:39.296Z,5.80
2018-11-21T11:09:39.053Z,6.13
2018-11-21T11:12:39.243Z,6.50
2018-11-21T11:15:39.102Z,6.63
2018-11-21T11:21:43.568Z,6.10
2018-11-21T11:24:43.480Z,6.13
2018-11-21T11:27:43.596Z,6.50
2018-11-21T11:30:46.379Z,6.20
2018-11-21T11:33:46.288Z,6.17
2018-11-21T11:36:36.044Z,6.67
2018-11-21T11:39:36.144Z,6.00
2018-11-21T11:42:30.673Z,6.27
2018-11-21T11:45:30.451Z,6.23
2018-11-21T11:51:11.230Z,6.60
2018-11-21T11:54:11.249Z,6.67
2018-11-21T11:57:11.384Z,6.33
2018-11-21T12:00:11.642Z,6.17
2018-11-21T12:03:11.521Z,6.27
2018-11-21T12:06:14.193Z,6.93
2018-11-21T12:09:14.381Z,6.63
2018-11-21T12:12:15.196Z,6.90
2018-11-21T12:15:17.115Z,6.27
2018-11-21T12:18:16.359Z,7.60
2018-11-21T12:21:20.405Z,7.33
2018-11-21T12:27:45.185Z,7.40
2018-11-21T12:33:51.168Z,6.73
2018-11-21T12:36:57.487Z,6.60
2018-11-21T12:39:57.503Z,6.27
2018-11-21T12:42:57.375Z,7.20
2018-11-21T12:45:57.563Z,6.33
2018-11-21T12:48:57.676Z,7.27
2018-11-21T12:51:58.002Z,6.47
2018-11-21T12:54:58.022Z,7.23
2018-11-21T12:57:58.065Z,7.33
2018-11-21T13:04:00.614Z,7.00
2018-11-21T13:06:44.307Z,7.07
2018-11-21T13:09:42.513Z,7.10
2018-11-21T13:12:42.203Z,7.03
2018-11-21T13:15:45.480Z,7.03
2018-11-21T13:18:45.350Z,7.23
2018-11-21T13:21:45.658Z,9.93
2018-11-21T13:24:51.861Z,8.23
2018-11-21T13:27:52.005Z,7.40
2018-11-21T13:33:31.991Z,7.60
2018-11-21T13:36:31.792Z,7.30
2018-11-21T13:39:31.427Z,7.10
2018-11-21T13:42:37.545Z,8.53
2018-11-21T13:45:33.026Z,8.93
2018-11-21T13:48:30.635Z,8.97
2018-11-21T13:51:30.223Z,9.43
2018-11-21T13:54:30.337Z,8.30
2018-11-21T13:57:10.658Z,7.80
2018-11-21T13:59:51.919Z,7.60
2018-11-21T14:02:33.118Z,8.10
2018-11-21T14:05:13.535Z,8.90
2018-11-21T14:07:54.287Z,9.00
2018-11-21T14:10:34.722Z,11.57
2018-11-21T14:13:15.619Z,9.63
2018-11-21T14:15:56.552Z,8.67
2018-11-21T14:18:37.325Z,9.30
2018-11-21T14:21:18.093Z,9.07
2018-11-21T14:23:58.990Z,9.57
2018-11-21T14:26:39.956Z,10.10
2018-11-21T14:29:20.682Z,9.60
2018-11-21T14:32:00.923Z,9.10
2018-11-21T14:34:41.574Z,10.70
2018-11-21T14:37:22.259Z,9.83
2018-11-21T14:40:02.861Z,9.87
2018-11-21T14:42:44.228Z,10.07
2018-11-21T14:45:25.455Z,9.87
2018-11-21T14:48:06.588Z,10.90
2018-11-21T14:50:47.640Z,10.80
2018-11-21T14:53:27.944Z,9.90
2018-11-21T14:56:08.931Z,10.03
2018-11-21T14:58:49.835Z,10.60
2018-11-21T15:01:30.787Z,11.30
2018-11-21T15:04:11.062Z,11.00
2018-11-21T15:06:51.696Z,11.63
2018-11-21T15:09:32.626Z,9.47
2018-11-21T15:12:13.435Z,10.77
2018-11-21T15:14:53.737Z,10.30
2018-11-21T15:17:34.086Z,10.30
2018-11-21T15:20:16.672Z,10.90
2018-11-21T15:22:57.637Z,10.10
2018-11-21T15:25:38.242Z,10.60
2018-11-21T15:28:18.764Z,11.97
2018-11-21T15:30:59.205Z,13.10
2018-11-21T15:33:39.866Z,14.67
2018-11-21T15:36:20.210Z,15.37
2018-11-21T15:39:01.499Z,15.07
2018-11-21T15:44:24.738Z,14.80
2018-11-21T15:47:05.883Z,13.73
2018-11-21T15:49:47.009Z,11.60
2018-11-21T15:52:27.595Z,12.40
2018-11-21T15:55:08.235Z,11.93
2018-11-21T16:00:35.200Z,12.90
2018-11-21T16:03:15.759Z,11.50
2018-11-21T16:05:56.962Z,12.73
2018-11-21T16:08:37.371Z,14.37
2018-11-21T16:11:17.777Z,14.00
2018-11-21T16:13:58.191Z,13.60
2018-11-21T16:16:39.108Z,14.63
2018-11-21T16:19:19.633Z,17.20
2018-11-21T16:22:00.617Z,18.83
2018-11-21T16:24:41.091Z,37.33
2018-11-21T16:27:22.193Z,29.13
2018-11-21T16:30:03.414Z,21.17
2018-11-21T16:32:43.954Z,19.77
2018-11-21T16:35:24.444Z,17.60
2018-11-21T16:38:05.513Z,17.23
2018-11-21T16:40:46.305Z,16.70
2018-11-21T16:43:26.694Z,15.47
2018-11-21T16:46:07.184Z,16.03
2018-11-21T16:48:47.889Z,14.90
2018-11-21T16:51:29.159Z,13.70
2018-11-21T16:54:09.407Z,14.23
2018-11-21T16:56:50.601Z,13.00
2018-11-21T16:59:31.870Z,12.47
2018-11-21T17:02:12.901Z,14.43
2018-11-21T17:04:53.343Z,14.97
2018-11-21T17:07:33.977Z,14.30
2018-11-21T17:10:18.775Z,13.33
2018-11-21T17:12:59.180Z,13.23
2018-11-21T17:15:39.795Z,14.10
2018-11-21T17:18:20.919Z,13.53
2018-11-21T17:21:01.525Z,14.73
2018-11-21T17:23:42.557Z,15.97
2018-11-21T17:26:22.958Z,16.63
